createdAt,value
2018-06-11T00:01:20.425Z,21.20
2018-06-11T00:03:49.406Z,21.20
2018-06-11T00:06:18.454Z,21.10
2018-06-11T00:08:46.709Z,21.10
2018-06-11T00:11:15.006Z,21.00
2018-06-11T00:13:43.260Z,20.90
2018-06-11T00:16:11.548Z,20.90
2018-06-11T00:18:39.846Z,20.90
2018-06-11T00:21:08.146Z,20.80
2018-06-11T00:23:36.443Z,20.80
2018-06-11T00:26:05.482Z,20.70
2018-06-11T00:28:33.774Z,20.60
2018-06-11T00:31:02.011Z,20.70
2018-06-11T00:33:30.272Z,20.70
2018-06-11T00:35:58.512Z,20.60
2018-06-11T00:38:26.818Z,20.60
2018-06-11T00:40:55.819Z,20.60
2018-06-11T00:43:24.083Z,20.60
2018-06-11T00:45:53.095Z,20.60
2018-06-11T00:48:21.346Z,20.60
2018-06-11T00:50:50.398Z,20.60
2018-06-11T00:53:18.686Z,20.60
2018-06-11T00:55:46.961Z,20.60
2018-06-11T00:58:15.216Z,20.60
2018-06-11T01:00:43.517Z,20.60
2018-06-11T01:03:11.822Z,20.60
2018-06-11T01:05:40.097Z,20.60
2018-06-11T01:08:08.355Z,20.50
2018-06-11T01:10:36.599Z,20.50
2018-06-11T01:13:04.903Z,20.50
2018-06-11T01:15:33.145Z,20.50
2018-06-11T01:18:01.447Z,20.50
2018-06-11T01:20:29.723Z,20.40
2018-06-11T01:22:57.972Z,20.40
2018-06-11T01:25:26.255Z,20.40
2018-06-11T01:27:54.547Z,20.30
2018-06-11T01:30:22.813Z,20.30
2018-06-11T01:32:51.068Z,20.20
2018-06-11T01:35:20.113Z,20.00
2018-06-11T01:37:48.366Z,20.00
2018-06-11T01:40:16.654Z,20.00
2018-06-11T01:42:44.926Z,20.00
2018-06-11T01:45:13.214Z,20.00
2018-06-11T01:47:41.498Z,20.00
2018-06-11T01:50:09.786Z,20.00
2018-06-11T01:52:38.026Z,19.90
2018-06-11T01:55:06.330Z,19.90
2018-06-11T01:57:34.598Z,19.90
2018-06-11T02:00:02.884Z,19.90
2018-06-11T02:02:31.119Z,19.90
2018-06-11T02:04:59.426Z,19.90
2018-06-11T02:07:27.671Z,20.00
2018-06-11T02:09:56.698Z,20.00
2018-06-11T02:12:24.985Z,19.90
2018-06-11T02:14:53.227Z,19.90
2018-06-11T02:17:21.989Z,19.90
2018-06-11T02:19:50.282Z,20.00
2018-06-11T02:22:19.289Z,20.00
2018-06-11T02:24:47.584Z,20.00
2018-06-11T02:27:15.870Z,20.00
2018-06-11T02:29:44.107Z,20.00
2018-06-11T02:32:13.125Z,19.90
2018-06-11T02:34:41.383Z,19.90
2018-06-11T02:37:09.628Z,19.90
2018-06-11T02:39:37.922Z,19.90
2018-06-11T02:42:06.151Z,19.90
2018-06-11T02:44:34.444Z,19.90
2018-06-11T02:47:02.680Z,19.90
2018-06-11T02:49:30.946Z,19.90
2018-06-11T02:51:59.985Z,19.90
2018-06-11T02:54:28.239Z,19.90
2018-06-11T02:56:56.534Z,19.80
2018-06-11T02:59:24.787Z,19.90
2018-06-11T03:01:53.038Z,19.90
2018-06-11T03:04:22.055Z,19.90
2018-06-11T03:06:50.347Z,19.80
2018-06-11T03:09:18.600Z,19.90
2018-06-11T03:11:46.887Z,19.90
2018-06-11T03:14:15.174Z,19.90
2018-06-11T03:16:43.424Z,19.90
2018-06-11T03:19:12.444Z,19.90
2018-06-11T03:21:40.740Z,19.80
2018-06-11T03:24:08.998Z,19.90
2018-06-11T03:26:37.242Z,19.90
2018-06-11T03:29:06.314Z,19.90
2018-06-11T03:31:34.602Z,19.90
2018-06-11T03:34:02.845Z,20.00
2018-06-11T03:36:31.091Z,20.00
2018-06-11T03:38:59.392Z,19.90
2018-06-11T03:41:27.661Z,19.90
2018-06-11T03:43:55.966Z,20.00
2018-06-11T03:46:24.252Z,20.00
2018-06-11T03:48:52.504Z,20.00
2018-06-11T03:51:20.747Z,20.00
2018-06-11T03:53:49.052Z,20.00
2018-06-11T03:56:17.330Z,20.00
2018-06-11T03:58:45.622Z,20.00
2018-06-11T04:01:13.893Z,20.00
2018-06-11T04:03:42.189Z,20.00
2018-06-11T04:06:10.466Z,19.90
2018-06-11T04:08:38.710Z,19.90
2018-06-11T04:11:07.093Z,19.80
2018-06-11T04:13:35.303Z,19.80
2018-06-11T04:16:03.590Z,19.80
2018-06-11T04:18:31.890Z,19.80
2018-06-11T04:21:00.891Z,19.70
2018-06-11T04:23:29.192Z,19.70
2018-06-11T04:25:57.477Z,19.70
2018-06-11T04:28:25.768Z,19.70
2018-06-11T04:30:54.042Z,19.60
2018-06-11T04:33:22.340Z,19.50
2018-06-11T04:35:50.576Z,19.40
2018-06-11T04:38:18.897Z,19.50
2018-06-11T04:40:47.175Z,19.50
2018-06-11T04:43:15.427Z,19.50
2018-06-11T04:45:43.715Z,19.60
2018-06-11T04:48:12.007Z,19.50
2018-06-11T04:50:40.302Z,19.50
2018-06-11T04:53:08.586Z,19.60
2018-06-11T04:55:37.584Z,19.80
2018-06-11T04:58:06.612Z,19.90
2018-06-11T05:00:34.914Z,19.90
2018-06-11T05:03:03.164Z,20.00
2018-06-11T05:05:31.408Z,20.10
2018-06-11T05:08:00.532Z,20.30
2018-06-11T05:10:29.504Z,20.40
2018-06-11T05:12:58.564Z,20.40
2018-06-11T05:15:26.809Z,20.40
2018-06-11T05:17:55.100Z,20.40
2018-06-11T05:20:23.367Z,20.50
2018-06-11T05:22:51.608Z,20.60
2018-06-11T05:25:19.907Z,20.60
2018-06-11T05:27:48.193Z,20.70
2018-06-11T05:30:16.451Z,20.80
2018-06-11T05:32:44.734Z,20.90
2018-06-11T05:35:13.021Z,20.90
2018-06-11T05:37:41.257Z,21.00
2018-06-11T05:40:10.338Z,21.20
2018-06-11T05:42:38.618Z,21.20
2018-06-11T05:45:06.916Z,21.30
2018-06-11T05:47:35.962Z,21.40
2018-06-11T05:50:04.213Z,21.40
2018-06-11T05:52:32.498Z,21.50
2018-06-11T05:55:00.790Z,21.50
2018-06-11T05:57:29.082Z,21.60
2018-06-11T05:59:57.371Z,21.70
2018-06-11T06:02:25.623Z,21.70
2018-06-11T06:04:53.938Z,21.80
2018-06-11T06:07:23.681Z,21.90
2018-06-11T06:09:51.985Z,21.90
2018-06-11T06:12:20.268Z,22.10
2018-06-11T06:14:48.563Z,22.10
2018-06-11T06:17:16.806Z,22.20
2018-06-11T06:19:45.079Z,22.20
2018-06-11T06:22:13.370Z,22.30
2018-06-11T06:24:41.669Z,22.40
2018-06-11T06:27:09.931Z,22.50
2018-06-11T06:29:38.237Z,22.60
2018-06-11T06:32:06.487Z,22.70
2018-06-11T06:34:34.908Z,22.80
2018-06-11T06:37:03.044Z,22.90
2018-06-11T06:39:31.346Z,23.00
2018-06-11T06:41:59.619Z,23.10
2018-06-11T06:44:27.904Z,23.20
2018-06-11T06:46:56.187Z,23.20
2018-06-11T06:49:24.493Z,23.30
2018-06-11T06:51:52.730Z,23.40
2018-06-11T06:54:21.029Z,23.50
2018-06-11T06:56:50.079Z,23.60
2018-06-11T06:59:18.327Z,23.50
2018-06-11T07:01:46.618Z,23.60
2018-06-11T07:04:14.910Z,23.70
2018-06-11T07:06:43.189Z,23.80
2018-06-11T07:09:11.487Z,23.90
2018-06-11T07:11:39.774Z,23.90
2018-06-11T07:14:08.070Z,24.00
2018-06-11T07:16:37.097Z,24.10
2018-06-11T07:19:05.403Z,24.10
2018-06-11T07:21:33.674Z,24.20
2018-06-11T07:24:01.918Z,24.30
2018-06-11T07:26:30.170Z,24.30
2018-06-11T07:28:59.238Z,24.50
2018-06-11T07:31:27.482Z,24.40
2018-06-11T07:33:55.743Z,24.50
2018-06-11T07:36:23.993Z,24.60
2018-06-11T07:38:53.055Z,24.70
2018-06-11T07:41:21.333Z,24.70
2018-06-11T07:43:49.621Z,24.80
2018-06-11T07:46:17.910Z,24.90
2018-06-11T07:48:46.167Z,24.90
2018-06-11T07:51:14.452Z,24.90
2018-06-11T07:53:42.752Z,25.10
2018-06-11T07:56:10.996Z,25.20
2018-06-11T07:58:39.247Z,25.20
2018-06-11T08:01:07.480Z,25.30
2018-06-11T08:03:36.551Z,25.40
2018-06-11T08:06:04.801Z,25.40
2018-06-11T08:08:33.068Z,25.50
2018-06-11T08:11:01.331Z,25.50
2018-06-11T08:13:29.610Z,25.50
2018-06-11T08:15:58.597Z,25.50
2018-06-11T08:18:26.854Z,25.50
2018-06-11T08:20:55.913Z,25.70
2018-06-11T08:23:24.179Z,25.60
2018-06-11T08:25:52.414Z,25.60
2018-06-11T08:28:20.723Z,25.60
2018-06-11T08:30:48.998Z,25.70
2018-06-11T08:33:17.235Z,25.90
2018-06-11T08:35:46.255Z,26.10
2018-06-11T08:38:14.538Z,26.10
2018-06-11T08:40:42.788Z,26.20
2018-06-11T08:43:11.819Z,26.50
2018-06-11T08:45:40.070Z,26.40
2018-06-11T08:48:08.323Z,26.50
2018-06-11T08:50:36.625Z,26.60
2018-06-11T08:53:05.667Z,26.70
2018-06-11T08:55:33.922Z,26.70
2018-06-11T08:58:02.222Z,26.80
2018-06-11T09:00:30.549Z,26.80
2018-06-11T09:02:59.552Z,26.80
2018-06-11T09:05:27.847Z,26.80
2018-06-11T09:07:56.141Z,26.70
2018-06-11T09:10:24.386Z,26.70
2018-06-11T09:12:52.640Z,26.90
2018-06-11T09:15:21.684Z,26.80
2018-06-11T09:17:49.917Z,26.80
2018-06-11T09:20:19.056Z,27.10
2018-06-11T09:22:47.333Z,27.10
2018-06-11T09:25:15.625Z,27.30
2018-06-11T09:27:43.864Z,27.30
2018-06-11T09:30:12.152Z,27.40
2018-06-11T09:32:40.408Z,27.40
2018-06-11T09:35:08.706Z,27.40
2018-06-11T09:37:36.984Z,27.60
2018-06-11T09:40:05.284Z,27.80
2018-06-11T09:42:33.542Z,27.80
2018-06-11T09:45:01.847Z,28.00
2018-06-11T09:47:30.131Z,28.00
2018-06-11T09:49:58.401Z,28.20
2018-06-11T09:52:26.677Z,28.40
2018-06-11T09:54:54.965Z,28.50
2018-06-11T09:57:23.278Z,28.60
2018-06-11T09:59:52.345Z,28.70
2018-06-11T10:02:20.584Z,28.70
2018-06-11T10:04:48.877Z,28.90
2018-06-11T10:07:17.139Z,29.00
2018-06-11T10:09:45.430Z,29.10
2018-06-11T10:12:13.715Z,29.00
2018-06-11T10:14:42.030Z,28.70
2018-06-11T10:17:10.307Z,28.40
2018-06-11T10:19:39.393Z,28.50
2018-06-11T10:22:07.658Z,28.50
2018-06-11T10:24:35.936Z,28.50
2018-06-11T10:27:04.196Z,28.60
2018-06-11T10:29:32.505Z,28.60
2018-06-11T10:32:00.820Z,28.30
2018-06-11T10:34:29.127Z,28.40
2018-06-11T10:36:57.384Z,28.50
2018-06-11T10:39:25.676Z,28.60
2018-06-11T10:41:53.944Z,28.50
2018-06-11T10:44:22.233Z,28.50
2018-06-11T10:46:50.512Z,28.20
2018-06-11T10:49:18.786Z,27.90
2018-06-11T10:51:47.089Z,27.70
2018-06-11T10:54:15.340Z,27.70
2018-06-11T10:56:43.634Z,27.40
2018-06-11T10:59:11.940Z,27.30
2018-06-11T11:01:40.181Z,27.10
2018-06-11T11:04:08.479Z,27.00
2018-06-11T11:06:38.220Z,27.00
2018-06-11T11:09:06.504Z,27.00
2018-06-11T11:11:34.781Z,27.20
2018-06-11T11:14:03.058Z,27.20
2018-06-11T11:16:31.317Z,27.30
2018-06-11T11:19:00.349Z,27.60
2018-06-11T11:21:28.598Z,27.50
2018-06-11T11:23:57.672Z,27.90
2018-06-11T11:26:25.887Z,27.90
2018-06-11T11:28:54.183Z,28.10
2018-06-11T11:31:23.039Z,28.40
2018-06-11T11:33:52.068Z,28.80
2018-06-11T11:36:20.333Z,28.80
2018-06-11T11:38:48.597Z,29.10
2018-06-11T11:41:16.824Z,29.10
2018-06-11T11:43:45.118Z,29.40
2018-06-11T11:46:14.866Z,29.70
2018-06-11T11:48:43.158Z,29.70
2018-06-11T11:51:11.472Z,30.00
2018-06-11T11:53:39.769Z,30.20
2018-06-11T11:56:08.000Z,30.50
2018-06-11T11:58:36.244Z,30.70
2018-06-11T12:01:04.570Z,31.00
2018-06-11T12:03:32.871Z,31.20
2018-06-11T12:06:01.163Z,31.50
2018-06-11T12:08:30.211Z,32.00
2018-06-11T12:10:58.473Z,32.00
2018-06-11T12:13:26.727Z,32.20
2018-06-11T12:15:54.991Z,32.20
2018-06-11T12:18:24.003Z,32.30
2018-06-11T12:20:52.294Z,32.30
2018-06-11T12:23:21.309Z,32.30
2018-06-11T12:25:49.629Z,32.30
2018-06-11T12:28:18.677Z,32.10
2018-06-11T12:30:46.936Z,32.00
2018-06-11T12:33:15.178Z,31.90
2018-06-11T12:35:44.202Z,31.60
2018-06-11T12:38:12.452Z,31.60
2018-06-11T12:40:41.525Z,31.50
2018-06-11T12:43:09.816Z,31.50
2018-06-11T12:45:38.093Z,31.40
2018-06-11T12:48:06.390Z,31.40
2018-06-11T12:50:35.470Z,31.40
2018-06-11T12:53:03.699Z,31.30
2018-06-11T12:55:32.009Z,31.20
2018-06-11T12:58:00.248Z,31.00
2018-06-11T13:00:28.505Z,30.90
2018-06-11T13:02:56.793Z,30.80
2018-06-11T13:05:25.085Z,30.50
2018-06-11T13:07:53.374Z,30.50
2018-06-11T13:10:21.658Z,30.30
2018-06-11T13:12:49.950Z,30.20
2018-06-11T13:15:18.220Z,30.00
2018-06-11T13:17:46.501Z,29.90
2018-06-11T13:20:14.799Z,29.50
2018-06-11T13:22:43.844Z,29.20
2018-06-11T13:25:12.103Z,29.10
2018-06-11T13:27:40.415Z,29.10
2018-06-11T13:30:08.714Z,28.90
2018-06-11T13:32:36.948Z,28.70
2018-06-11T13:35:05.215Z,28.60
2018-06-11T13:37:33.578Z,28.50
2018-06-11T13:40:02.658Z,28.20
2018-06-11T13:42:30.938Z,28.20
2018-06-11T13:44:59.962Z,27.90
2018-06-11T13:47:28.218Z,27.90
2018-06-11T13:49:56.506Z,27.90
2018-06-11T13:52:24.762Z,27.70
2018-06-11T13:54:53.796Z,27.50
2018-06-11T13:57:22.041Z,27.50
2018-06-11T13:59:51.083Z,27.40
2018-06-11T14:02:19.383Z,27.30
2018-06-11T14:04:47.687Z,27.30
2018-06-11T14:07:16.708Z,27.10
2018-06-11T14:09:45.014Z,27.00
2018-06-11T14:12:13.254Z,26.90
2018-06-11T14:14:41.510Z,26.80
2018-06-11T14:17:10.525Z,26.70
2018-06-11T14:19:38.787Z,26.70
2018-06-11T14:22:07.849Z,26.40
2018-06-11T14:24:36.146Z,26.40
2018-06-11T14:27:04.432Z,26.20
2018-06-11T14:29:33.489Z,26.10
2018-06-11T14:32:01.724Z,26.10
2018-06-11T14:34:29.984Z,26.10
2018-06-11T14:36:59.012Z,25.90
2018-06-11T14:39:27.312Z,25.90
2018-06-11T14:41:55.585Z,25.80
2018-06-11T14:44:23.856Z,25.70
2018-06-11T14:46:52.142Z,25.60
2018-06-11T14:49:20.439Z,25.50
2018-06-11T14:51:48.710Z,25.40
2018-06-11T14:54:17.010Z,25.10
2018-06-11T14:56:45.297Z,24.90
2018-06-11T14:59:14.372Z,24.70
2018-06-11T15:01:42.652Z,24.70
2018-06-11T15:04:10.915Z,24.70
2018-06-11T15:06:39.199Z,24.60
2018-06-11T15:09:07.514Z,24.60
2018-06-11T15:11:36.566Z,24.50
2018-06-11T15:14:04.857Z,24.50
2018-06-11T15:16:33.155Z,24.40
2018-06-11T15:19:02.264Z,24.30
2018-06-11T15:21:31.275Z,24.30
2018-06-11T15:23:59.527Z,24.30
2018-06-11T15:26:28.582Z,24.20
2018-06-11T15:28:56.857Z,24.10
2018-06-11T15:31:25.118Z,24.00
2018-06-11T15:33:53.503Z,23.90
2018-06-11T15:36:21.878Z,23.90
2018-06-11T15:38:50.150Z,23.90
2018-06-11T15:41:18.411Z,23.90
2018-06-11T15:43:46.698Z,23.80
2018-06-11T15:46:14.997Z,23.80
2018-06-11T15:48:43.288Z,23.80
2018-06-11T15:51:11.549Z,23.70
2018-06-11T15:53:39.838Z,23.70
2018-06-11T15:56:08.090Z,23.70
2018-06-11T15:58:36.354Z,23.70
2018-06-11T16:01:04.649Z,23.60
2018-06-11T16:03:32.932Z,23.60
2018-06-11T16:06:01.192Z,23.50
2018-06-11T16:08:29.528Z,23.50
2018-06-11T16:10:57.827Z,23.50
2018-06-11T16:13:26.850Z,23.40
2018-06-11T16:15:55.095Z,23.40
2018-06-11T16:18:23.387Z,23.40
2018-06-11T16:20:51.644Z,23.30
2018-06-11T16:23:20.701Z,23.20
2018-06-11T16:25:49.011Z,23.20
2018-06-11T16:28:18.056Z,23.10
2018-06-11T16:30:46.318Z,23.10
2018-06-11T16:33:14.601Z,23.10
2018-06-11T16:35:42.868Z,23.10
2018-06-11T16:38:11.126Z,23.10
2018-06-11T16:40:40.152Z,23.00
2018-06-11T16:43:08.415Z,23.00
2018-06-11T16:45:36.679Z,23.00
2018-06-11T16:48:04.982Z,22.90
2018-06-11T16:50:33.276Z,22.90
2018-06-11T16:53:01.566Z,22.90
2018-06-11T16:55:29.926Z,22.90
2018-06-11T16:57:58.291Z,22.90
2018-06-11T17:00:26.587Z,22.70
2018-06-11T17:02:54.894Z,22.70
2018-06-11T17:05:23.154Z,22.70
2018-06-11T17:07:51.466Z,22.60
2018-06-11T17:10:20.534Z,22.60
2018-06-11T17:12:48.775Z,22.60
2018-06-11T17:15:17.044Z,22.60
2018-06-11T17:17:45.287Z,22.40
2018-06-11T17:20:14.359Z,22.40
2018-06-11T17:22:42.571Z,22.30
2018-06-11T17:25:11.626Z,22.20
2018-06-11T17:27:39.914Z,22.20
2018-06-11T17:30:08.240Z,22.20
2018-06-11T17:32:36.485Z,22.30
2018-06-11T17:35:04.804Z,22.30
2018-06-11T17:37:33.049Z,22.30
2018-06-11T17:40:02.089Z,22.30
2018-06-11T17:42:30.339Z,22.30
2018-06-11T17:44:58.658Z,22.30
2018-06-11T17:47:26.925Z,22.40
2018-06-11T17:49:55.202Z,22.40
2018-06-11T17:52:23.462Z,22.40
2018-06-11T17:54:51.753Z,22.40
2018-06-11T17:57:20.016Z,22.40
2018-06-11T17:59:48.268Z,22.40
2018-06-11T18:02:16.550Z,22.40
2018-06-11T18:04:44.906Z,22.40
2018-06-11T18:07:13.163Z,22.40
2018-06-11T18:09:41.425Z,22.40
2018-06-11T18:12:09.720Z,22.40
2018-06-11T18:14:38.058Z,22.40
2018-06-11T18:17:06.298Z,22.40
2018-06-11T18:19:34.574Z,22.40
2018-06-11T18:22:03.638Z,22.30
2018-06-11T18:24:31.909Z,22.30
2018-06-11T18:27:00.163Z,22.30
2018-06-11T18:29:28.467Z,22.30
2018-06-11T18:31:56.725Z,22.30
2018-06-11T18:34:24.980Z,22.30
2018-06-11T18:36:53.233Z,22.30
2018-06-11T18:39:22.280Z,22.20
2018-06-11T18:41:50.552Z,22.20
2018-06-11T18:44:18.841Z,22.20
2018-06-11T18:46:47.116Z,22.00
2018-06-11T18:49:15.401Z,21.80
2018-06-11T18:51:43.691Z,21.60
2018-06-11T18:54:11.994Z,21.60
2018-06-11T18:56:41.061Z,21.20
2018-06-11T18:59:09.367Z,21.10
2018-06-11T19:01:38.419Z,21.20
2018-06-11T19:04:06.720Z,21.20
2018-06-11T19:06:35.005Z,21.00
2018-06-11T19:09:03.333Z,20.90
2018-06-11T19:11:31.629Z,21.00
2018-06-11T19:13:59.883Z,20.80
2018-06-11T19:16:28.187Z,20.80
2018-06-11T19:18:56.471Z,20.80
2018-06-11T19:21:24.726Z,20.80
2018-06-11T19:23:53.022Z,20.70
2018-06-11T19:26:21.330Z,20.40
2018-06-11T19:28:49.624Z,20.30
2018-06-11T19:31:18.689Z,20.40
2018-06-11T19:33:46.939Z,20.30
2018-06-11T19:36:15.231Z,20.30
2018-06-11T19:38:43.480Z,20.60
2018-06-11T19:41:11.775Z,20.70
2018-06-11T19:43:40.024Z,20.70
2018-06-11T19:46:08.294Z,20.70
2018-06-11T19:48:36.612Z,20.60
2018-06-11T19:51:05.803Z,20.70
2018-06-11T19:53:34.759Z,20.50
2018-06-11T19:56:03.104Z,20.60
2018-06-11T19:58:31.379Z,20.60
2018-06-11T20:00:59.687Z,20.50
2018-06-11T20:03:28.719Z,20.60
2018-06-11T20:05:56.983Z,20.60
2018-06-11T20:08:25.283Z,20.70
2018-06-11T20:10:53.581Z,20.70
2018-06-11T20:13:21.863Z,20.80
2018-06-11T20:15:50.152Z,20.70
2018-06-11T20:18:18.427Z,20.70
2018-06-11T20:20:46.729Z,20.70
2018-06-11T20:23:15.762Z,20.80
2018-06-11T20:25:45.011Z,20.70
2018-06-11T20:28:14.062Z,20.70
2018-06-11T20:30:43.174Z,20.70
2018-06-11T20:33:11.457Z,20.70
2018-06-11T20:35:40.727Z,20.70
2018-06-11T20:38:09.024Z,20.70
2018-06-11T20:40:37.314Z,20.70
2018-06-11T20:43:06.514Z,20.70
2018-06-11T20:45:34.819Z,20.70
2018-06-11T20:48:03.838Z,20.60
2018-06-11T20:50:32.089Z,20.60
2018-06-11T20:53:01.148Z,20.60
2018-06-11T20:55:29.442Z,20.60
2018-06-11T20:57:57.789Z,20.70
2018-06-11T21:00:26.057Z,20.60
2018-06-11T21:02:54.335Z,20.70
2018-06-11T21:05:22.630Z,20.60
2018-06-11T21:07:50.887Z,20.60
2018-06-11T21:10:19.206Z,20.60
2018-06-11T21:12:47.437Z,20.70
2018-06-11T21:15:15.703Z,20.60
2018-06-11T21:17:43.967Z,20.60
2018-06-11T21:20:12.271Z,20.60
2018-06-11T21:22:40.524Z,20.60
2018-06-11T21:25:08.778Z,20.60
2018-06-11T21:27:37.906Z,20.70
2018-06-11T21:30:06.201Z,20.60
2018-06-11T21:32:34.501Z,20.70
2018-06-11T21:35:03.714Z,20.70
2018-06-11T21:37:32.023Z,20.70
2018-06-11T21:40:00.266Z,20.70
2018-06-11T21:42:28.549Z,20.70
2018-06-11T21:44:56.803Z,20.70
2018-06-11T21:47:25.102Z,20.70
2018-06-11T21:49:53.382Z,20.70
2018-06-11T21:52:21.640Z,20.70
2018-06-11T21:54:49.939Z,20.70
2018-06-11T21:57:18.226Z,20.60
2018-06-11T21:59:47.235Z,20.70
2018-06-11T22:02:15.551Z,20.70
2018-06-11T22:04:43.832Z,20.70
2018-06-11T22:07:12.095Z,20.70
2018-06-11T22:09:40.428Z,20.70
2018-06-11T22:12:08.684Z,20.70
2018-06-11T22:14:36.957Z,20.70
2018-06-11T22:17:05.231Z,20.70
2018-06-11T22:19:33.509Z,20.70
2018-06-11T22:22:01.768Z,20.60
2018-06-11T22:24:30.027Z,20.60
2018-06-11T22:26:58.321Z,20.60
2018-06-11T22:29:26.603Z,20.60
2018-06-11T22:31:54.889Z,20.60
2018-06-11T22:34:23.176Z,20.60
2018-06-11T22:36:51.488Z,20.60
2018-06-11T22:39:20.496Z,20.60
2018-06-11T22:41:48.758Z,20.60
2018-06-11T22:44:17.815Z,20.50
2018-06-11T22:46:46.064Z,20.50
2018-06-11T22:49:14.308Z,20.50
2018-06-11T22:51:43.376Z,20.50
2018-06-11T22:54:11.649Z,20.40
2018-06-11T22:56:39.940Z,20.50
2018-06-11T22:59:08.216Z,20.50
2018-06-11T23:01:36.479Z,20.50
2018-06-11T23:04:04.781Z,20.50
2018-06-11T23:06:33.027Z,20.50
2018-06-11T23:09:01.275Z,20.50
2018-06-11T23:11:29.536Z,20.50
2018-06-11T23:13:57.821Z,20.40
2018-06-11T23:16:26.114Z,20.40
2018-06-11T23:18:54.400Z,20.40
2018-06-11T23:21:23.269Z,20.40
2018-06-11T23:23:51.515Z,20.40
2018-06-11T23:26:20.543Z,20.40
2018-06-11T23:28:48.815Z,20.40
2018-06-11T23:31:17.071Z,20.40
2018-06-11T23:33:46.118Z,20.40
2018-06-11T23:36:14.417Z,20.40
2018-06-11T23:38:42.655Z,20.40
2018-06-11T23:41:10.911Z,20.40
2018-06-11T23:43:39.221Z,20.40
2018-06-11T23:46:07.462Z,20.40
2018-06-11T23:48:35.715Z,20.40
2018-06-11T23:51:04.741Z,20.40
2018-06-11T23:53:33.055Z,20.40
2018-06-11T23:56:01.349Z,20.40
2018-06-11T23:58:29.654Z,20.40
